createdAt,value
2024-01-31T00:02:15.845Z,3.00
2024-01-31T00:05:04.032Z,2.97
2024-01-31T00:07:51.804Z,2.80
2024-01-31T00:10:39.401Z,2.70
2024-01-31T00:13:26.794Z,3.00
2024-01-31T00:16:15.953Z,2.83
2024-01-31T00:19:03.395Z,3.00
2024-01-31T00:21:51.122Z,3.13
2024-01-31T00:24:38.431Z,2.60
2024-01-31T00:27:26.067Z,2.70
2024-01-31T00:30:14.071Z,2.73
2024-01-31T00:33:02.720Z,2.80
2024-01-31T00:35:50.521Z,2.83
2024-01-31T00:38:37.829Z,3.10
2024-01-31T00:41:25.476Z,2.60
2024-01-31T00:44:12.782Z,2.73
2024-01-31T00:47:00.606Z,2.53
2024-01-31T00:49:49.321Z,3.00
2024-01-31T00:52:37.131Z,3.37
2024-01-31T00:55:24.695Z,3.43
2024-01-31T00:58:12.273Z,3.00
2024-01-31T01:00:59.882Z,2.93
2024-01-31T01:03:47.341Z,2.63
2024-01-31T01:06:36.091Z,3.03
2024-01-31T01:09:23.850Z,3.30
2024-01-31T01:12:11.157Z,6.53
2024-01-31T01:15:05.359Z,3.43
2024-01-31T01:18:00.245Z,2.97
2024-01-31T01:20:47.612Z,3.60
2024-01-31T01:23:36.642Z,3.90
2024-01-31T01:26:23.942Z,2.80
2024-01-31T01:29:11.645Z,2.63
2024-01-31T01:31:58.943Z,2.77
2024-01-31T01:34:47.738Z,2.77
2024-01-31T01:37:35.045Z,2.93
2024-01-31T01:40:23.954Z,2.90
2024-01-31T01:43:18.605Z,3.10
2024-01-31T01:46:11.941Z,2.70
2024-01-31T01:48:59.268Z,2.70
2024-01-31T01:51:47.327Z,2.70
2024-01-31T01:54:36.225Z,3.00
2024-01-31T01:57:25.277Z,2.60
2024-01-31T02:00:14.538Z,3.17
2024-01-31T02:03:03.308Z,2.60
2024-01-31T02:05:51.276Z,2.73
2024-01-31T02:08:38.540Z,2.77
2024-01-31T02:11:26.137Z,2.80
2024-01-31T02:14:15.076Z,2.70
2024-01-31T02:17:02.638Z,2.60
2024-01-31T02:19:50.696Z,2.90
2024-01-31T02:22:39.678Z,2.80
2024-01-31T02:25:27.525Z,3.00
2024-01-31T02:28:15.262Z,2.73
2024-01-31T02:31:03.247Z,2.53
2024-01-31T02:33:50.683Z,3.20
2024-01-31T02:36:38.472Z,2.63
2024-01-31T02:39:27.133Z,2.33
2024-01-31T02:42:15.812Z,2.87
2024-01-31T02:45:03.194Z,2.30
2024-01-31T02:47:51.012Z,2.60
2024-01-31T02:50:39.702Z,2.67
2024-01-31T02:53:27.037Z,2.90
2024-01-31T02:56:16.296Z,2.70
2024-01-31T02:59:03.518Z,2.50
2024-01-31T03:01:51.465Z,3.53
2024-01-31T03:04:38.724Z,2.80
2024-01-31T03:07:26.530Z,2.47
2024-01-31T03:10:14.277Z,3.50
2024-01-31T03:13:03.116Z,2.37
2024-01-31T03:15:50.398Z,2.53
2024-01-31T03:18:38.069Z,2.67
2024-01-31T03:21:25.389Z,2.83
2024-01-31T03:24:14.291Z,2.77
2024-01-31T03:27:01.624Z,3.33
2024-01-31T03:29:50.625Z,3.33
2024-01-31T03:32:38.171Z,2.63
2024-01-31T03:35:26.166Z,2.47
2024-01-31T03:38:13.502Z,2.57
2024-01-31T03:41:01.170Z,2.43
2024-01-31T03:43:48.414Z,2.93
2024-01-31T03:46:37.630Z,3.10
2024-01-31T03:49:25.072Z,3.33
2024-01-31T03:52:12.325Z,3.37
2024-01-31T03:55:01.439Z,2.50
2024-01-31T03:57:48.698Z,3.17
2024-01-31T04:00:36.246Z,2.50
2024-01-31T04:03:24.848Z,2.73
2024-01-31T04:06:13.255Z,2.63
2024-01-31T04:09:00.470Z,2.90
2024-01-31T04:11:48.059Z,2.80
2024-01-31T04:14:35.297Z,3.03
2024-01-31T04:17:23.316Z,3.07
2024-01-31T04:20:13.121Z,3.40
2024-01-31T04:23:00.957Z,3.53
2024-01-31T04:25:48.257Z,3.37
2024-01-31T04:28:35.566Z,3.53
2024-01-31T04:31:23.395Z,2.97
2024-01-31T04:34:10.786Z,2.60
2024-01-31T04:36:59.916Z,2.80
2024-01-31T04:39:51.662Z,3.30
2024-01-31T04:42:40.312Z,3.33
2024-01-31T04:45:27.568Z,2.57
2024-01-31T04:48:15.327Z,2.93
2024-01-31T04:51:04.123Z,3.50
2024-01-31T04:53:53.038Z,3.20
2024-01-31T04:56:40.370Z,2.97
2024-01-31T04:59:29.109Z,3.30
2024-01-31T05:02:16.703Z,3.43
2024-01-31T05:05:04.503Z,3.03
2024-01-31T05:07:52.054Z,3.50
2024-01-31T05:10:43.516Z,3.23
2024-01-31T05:13:30.987Z,3.23
2024-01-31T05:16:18.647Z,3.33
2024-01-31T05:19:06.319Z,3.80
2024-01-31T05:21:53.856Z,3.57
2024-01-31T05:24:41.652Z,3.70
2024-01-31T05:27:30.693Z,2.93
2024-01-31T05:30:17.957Z,3.23
2024-01-31T05:33:05.991Z,3.40
2024-01-31T05:35:53.417Z,3.30
2024-01-31T05:38:41.692Z,3.47
2024-01-31T05:41:29.216Z,2.60
2024-01-31T05:44:17.822Z,3.40
2024-01-31T05:47:06.069Z,3.20
2024-01-31T05:49:53.335Z,3.30
2024-01-31T05:52:41.231Z,4.10
2024-01-31T05:55:28.564Z,3.30
2024-01-31T05:58:16.329Z,3.43
2024-01-31T06:01:05.084Z,3.53
2024-01-31T06:03:52.615Z,3.30
2024-01-31T06:06:39.867Z,3.40
2024-01-31T06:09:27.750Z,3.20
2024-01-31T06:12:15.020Z,3.63
2024-01-31T06:15:02.538Z,3.20
2024-01-31T06:17:51.569Z,3.40
2024-01-31T06:20:42.091Z,3.60
2024-01-31T06:23:29.397Z,3.63
2024-01-31T06:26:17.048Z,3.53
2024-01-31T06:29:04.311Z,3.47
2024-01-31T06:31:53.733Z,3.80
2024-01-31T06:34:42.382Z,3.23
2024-01-31T06:37:30.235Z,3.80
2024-01-31T06:40:17.732Z,3.30
2024-01-31T06:43:05.900Z,3.73
2024-01-31T06:45:53.342Z,4.17
2024-01-31T06:48:41.228Z,4.87
2024-01-31T06:51:29.806Z,4.10
2024-01-31T06:54:17.153Z,5.07
2024-01-31T06:57:04.807Z,5.47
2024-01-31T06:59:52.137Z,7.87
2024-01-31T07:02:39.745Z,8.93
2024-01-31T07:05:27.570Z,9.30
2024-01-31T07:08:16.231Z,7.60
2024-01-31T07:11:06.040Z,4.90
2024-01-31T07:13:53.451Z,4.80
2024-01-31T07:16:41.176Z,5.80
2024-01-31T07:19:29.559Z,6.73
2024-01-31T07:22:16.776Z,5.70
2024-01-31T07:25:12.222Z,4.70
2024-01-31T07:27:59.670Z,4.57
2024-01-31T07:30:47.507Z,4.50
2024-01-31T07:33:35.982Z,5.67
2024-01-31T07:36:23.726Z,4.20
2024-01-31T07:39:11.414Z,4.00
2024-01-31T07:42:00.001Z,3.80
2024-01-31T07:44:47.782Z,3.83
2024-01-31T07:47:38.389Z,3.77
2024-01-31T07:50:25.985Z,3.97
2024-01-31T07:53:13.334Z,4.13
2024-01-31T07:56:03.165Z,3.77
2024-01-31T07:58:53.624Z,4.00
2024-01-31T08:01:41.401Z,4.27
2024-01-31T08:04:29.144Z,3.90
2024-01-31T08:07:17.046Z,3.70
2024-01-31T08:10:05.057Z,4.00
2024-01-31T08:12:52.761Z,4.30
2024-01-31T08:15:41.706Z,3.60
2024-01-31T08:18:29.113Z,3.57
2024-01-31T08:21:16.589Z,2.93
2024-01-31T08:24:04.330Z,3.63
2024-01-31T08:26:52.512Z,4.90
2024-01-31T08:29:40.114Z,3.43
2024-01-31T08:32:29.869Z,3.13
2024-01-31T08:35:17.719Z,3.17
2024-01-31T08:38:05.575Z,3.33
2024-01-31T08:40:53.057Z,3.50
2024-01-31T08:43:40.809Z,2.93
2024-01-31T08:46:29.359Z,3.10
2024-01-31T08:49:18.575Z,3.10
2024-01-31T08:52:06.976Z,3.73
2024-01-31T08:54:54.861Z,4.10
2024-01-31T08:57:42.052Z,3.63
2024-01-31T09:00:31.072Z,3.40
2024-01-31T09:03:19.140Z,3.70
2024-01-31T09:06:08.394Z,3.83
2024-01-31T09:08:56.104Z,4.00
2024-01-31T09:11:43.793Z,3.67
2024-01-31T09:14:31.386Z,4.30
2024-01-31T09:17:19.001Z,4.10
2024-01-31T09:20:07.697Z,3.67
2024-01-31T09:22:56.759Z,3.60
2024-01-31T09:25:44.184Z,3.83
2024-01-31T09:28:32.023Z,3.90
2024-01-31T09:31:22.947Z,4.50
2024-01-31T09:34:10.490Z,4.33
2024-01-31T09:36:58.412Z,4.80
2024-01-31T09:39:47.269Z,5.40
2024-01-31T09:42:34.672Z,5.50
2024-01-31T09:45:23.326Z,5.32
2024-01-31T09:48:13.712Z,5.15
2024-01-31T09:51:04.044Z,4.20
2024-01-31T09:53:57.444Z,4.55
2024-01-31T09:56:46.322Z,4.47
2024-01-31T09:59:33.940Z,4.00
2024-01-31T10:02:22.652Z,4.22
2024-01-31T10:05:09.874Z,4.40
2024-01-31T10:08:02.373Z,4.18
2024-01-31T10:10:50.939Z,3.75
2024-01-31T10:13:40.327Z,4.00
2024-01-31T10:16:28.354Z,3.90
2024-01-31T10:19:16.466Z,3.67
2024-01-31T10:22:04.589Z,3.47
2024-01-31T10:24:52.404Z,3.60
2024-01-31T10:27:40.224Z,4.00
2024-01-31T10:30:30.480Z,5.03
2024-01-31T10:33:19.574Z,3.50
2024-01-31T10:37:07.693Z,3.70
2024-01-31T10:39:20.119Z,4.20
2024-01-31T10:42:08.637Z,4.15
2024-01-31T10:44:56.920Z,3.67
2024-01-31T10:47:45.923Z,3.77
2024-01-31T10:50:34.880Z,4.22
2024-01-31T10:53:23.651Z,4.70
2024-01-31T10:56:12.745Z,4.15
2024-01-31T10:59:03.431Z,4.57
2024-01-31T11:01:53.374Z,4.07
2024-01-31T11:04:43.622Z,4.00
2024-01-31T11:07:31.730Z,4.10
2024-01-31T11:10:23.141Z,4.27
2024-01-31T11:13:11.074Z,4.10
2024-01-31T11:15:58.338Z,4.03
2024-01-31T11:18:47.982Z,3.90
2024-01-31T11:21:39.420Z,3.60
2024-01-31T11:24:27.361Z,4.32
2024-01-31T11:27:15.677Z,3.72
2024-01-31T11:30:04.861Z,3.90
2024-01-31T11:32:52.465Z,3.75
2024-01-31T11:35:40.239Z,4.40
2024-01-31T11:38:29.077Z,3.90
2024-01-31T11:41:16.951Z,4.80
2024-01-31T11:44:05.756Z,4.35
2024-01-31T11:46:53.425Z,3.78
2024-01-31T11:49:41.390Z,4.30
2024-01-31T11:52:28.697Z,4.00
2024-01-31T11:55:22.910Z,3.50
2024-01-31T11:58:10.438Z,4.00
2024-01-31T12:00:57.768Z,4.10
2024-01-31T12:03:46.121Z,3.92
2024-01-31T12:06:33.780Z,3.97
2024-01-31T12:09:20.902Z,3.70
2024-01-31T12:12:12.578Z,3.83
2024-01-31T12:15:00.039Z,3.88
2024-01-31T12:17:47.847Z,3.53
2024-01-31T12:20:35.655Z,4.00
2024-01-31T12:23:23.749Z,4.28
2024-01-31T12:26:11.956Z,3.88
2024-01-31T12:29:00.553Z,4.28
2024-01-31T12:31:48.242Z,4.00
2024-01-31T12:34:35.461Z,4.05
2024-01-31T12:37:23.337Z,4.30
2024-01-31T12:40:12.754Z,4.40
2024-01-31T12:43:00.907Z,3.97
2024-01-31T12:45:49.952Z,3.45
2024-01-31T12:48:37.901Z,3.95
2024-01-31T12:51:25.223Z,3.67
2024-01-31T12:54:13.042Z,3.55
2024-01-31T12:57:00.415Z,4.55
2024-01-31T12:59:48.346Z,4.38
2024-01-31T13:02:36.871Z,4.32
2024-01-31T13:05:25.325Z,5.05
2024-01-31T13:08:12.773Z,4.18
2024-01-31T13:11:00.834Z,4.50
2024-01-31T13:13:50.795Z,3.97
2024-01-31T13:16:46.378Z,3.85
2024-01-31T13:19:43.943Z,4.07
2024-01-31T13:22:32.125Z,4.32
2024-01-31T13:25:19.883Z,4.32
2024-01-31T13:28:07.171Z,4.15
2024-01-31T13:30:54.842Z,4.25
2024-01-31T13:33:42.614Z,4.38
2024-01-31T13:36:31.359Z,4.40
2024-01-31T13:39:19.165Z,5.57
2024-01-31T13:42:08.903Z,5.63
2024-01-31T13:44:57.515Z,5.28
2024-01-31T13:47:44.928Z,4.80
2024-01-31T13:50:32.780Z,4.68
2024-01-31T13:53:21.510Z,4.32
2024-01-31T13:56:09.673Z,3.80
2024-01-31T13:58:57.214Z,3.90
2024-01-31T14:01:44.920Z,4.47
2024-01-31T14:04:32.568Z,4.43
2024-01-31T14:07:20.089Z,4.05
2024-01-31T14:10:09.784Z,3.33
2024-01-31T14:12:59.727Z,3.30
2024-01-31T14:15:47.502Z,3.65
2024-01-31T14:18:34.925Z,3.60
2024-01-31T14:21:22.237Z,3.05
2024-01-31T14:24:16.060Z,3.60
2024-01-31T14:27:06.684Z,3.22
2024-01-31T14:29:54.399Z,3.67
2024-01-31T14:32:42.043Z,3.47
2024-01-31T14:35:29.496Z,3.40
2024-01-31T14:38:17.210Z,3.50
2024-01-31T14:41:05.347Z,2.95
2024-01-31T14:43:54.231Z,3.33
2024-01-31T14:46:41.777Z,3.45
2024-01-31T14:49:29.284Z,3.58
2024-01-31T14:52:16.704Z,3.17
2024-01-31T14:55:04.802Z,3.33
2024-01-31T14:57:52.507Z,3.70
2024-01-31T15:00:41.401Z,3.13
2024-01-31T15:03:28.900Z,2.90
2024-01-31T15:06:17.874Z,3.53
2024-01-31T15:09:08.922Z,3.38
2024-01-31T15:12:00.022Z,3.45
2024-01-31T15:14:47.493Z,3.92
2024-01-31T15:17:36.388Z,4.63
2024-01-31T15:20:24.086Z,3.78
2024-01-31T15:23:11.401Z,3.75
2024-01-31T15:25:58.817Z,4.20
2024-01-31T15:28:46.089Z,4.15
2024-01-31T15:31:34.262Z,3.38
2024-01-31T15:34:23.005Z,4.50
2024-01-31T15:37:10.800Z,3.92
2024-01-31T15:39:58.099Z,3.90
2024-01-31T15:42:45.698Z,4.30
2024-01-31T15:45:32.951Z,4.63
2024-01-31T15:48:20.501Z,4.18
2024-01-31T15:51:09.966Z,3.97
2024-01-31T15:53:57.516Z,4.95
2024-01-31T15:56:45.483Z,4.80
2024-01-31T15:59:33.451Z,5.13
2024-01-31T16:02:21.171Z,4.77
2024-01-31T16:05:10.397Z,6.53
2024-01-31T16:07:59.192Z,5.43
2024-01-31T16:10:46.477Z,5.80
2024-01-31T16:13:34.165Z,6.60
2024-01-31T16:16:21.845Z,7.57
2024-01-31T16:19:09.507Z,8.63
2024-01-31T16:21:56.793Z,5.63
2024-01-31T16:24:45.813Z,4.67
2024-01-31T16:27:36.615Z,5.37
2024-01-31T16:30:25.191Z,5.00
2024-01-31T16:33:12.556Z,4.67
2024-01-31T16:36:00.239Z,5.70
2024-01-31T16:38:47.855Z,4.93
2024-01-31T16:41:36.973Z,5.33
2024-01-31T16:44:24.560Z,5.07
2024-01-31T16:47:11.735Z,6.07
2024-01-31T16:49:59.182Z,7.23
2024-01-31T16:52:46.397Z,6.70
2024-01-31T16:55:33.717Z,5.50
2024-01-31T16:58:22.362Z,7.87
2024-01-31T17:01:10.899Z,7.07
2024-01-31T17:03:59.980Z,9.97
2024-01-31T17:06:47.826Z,9.77
2024-01-31T17:09:35.079Z,7.53
2024-01-31T17:12:22.745Z,10.47
2024-01-31T17:15:11.594Z,8.10
2024-01-31T17:17:59.382Z,7.20
2024-01-31T17:20:48.001Z,6.80
2024-01-31T17:23:36.275Z,6.67
2024-01-31T17:26:23.443Z,7.40
2024-01-31T17:29:10.933Z,6.07
2024-01-31T17:31:59.506Z,7.40
2024-01-31T17:34:47.074Z,7.87
2024-01-31T17:37:34.380Z,9.23
2024-01-31T17:40:22.245Z,9.60
2024-01-31T17:43:09.555Z,8.30
2024-01-31T17:45:57.501Z,7.73
2024-01-31T17:48:46.401Z,7.50
2024-01-31T17:51:34.257Z,9.17
2024-01-31T17:54:22.102Z,9.17
2024-01-31T17:57:09.665Z,8.67
2024-01-31T17:59:57.275Z,8.63
2024-01-31T18:02:44.465Z,7.37
2024-01-31T18:05:33.355Z,6.90
2024-01-31T18:08:20.589Z,6.67
2024-01-31T18:11:08.327Z,6.50
2024-01-31T18:13:55.558Z,6.97
2024-01-31T18:16:43.155Z,7.83
2024-01-31T18:19:30.817Z,6.43
2024-01-31T18:22:19.843Z,6.57
2024-01-31T18:25:08.298Z,6.97
2024-01-31T18:27:56.879Z,6.97
2024-01-31T18:30:44.490Z,7.20
2024-01-31T18:33:32.078Z,6.40
2024-01-31T18:36:19.780Z,7.50
2024-01-31T18:39:08.787Z,9.10
2024-01-31T18:41:55.978Z,8.47
2024-01-31T18:44:43.684Z,12.40
2024-01-31T18:47:31.113Z,12.67
2024-01-31T18:50:18.316Z,10.60
2024-01-31T18:53:05.666Z,7.77
2024-01-31T18:55:55.214Z,7.07
2024-01-31T18:58:43.418Z,7.57
2024-01-31T19:01:30.763Z,7.30
2024-01-31T19:04:18.313Z,8.37
2024-01-31T19:07:05.753Z,6.43
2024-01-31T19:09:53.232Z,6.73
2024-01-31T19:12:41.875Z,6.30
2024-01-31T19:15:29.496Z,5.73
2024-01-31T19:18:16.864Z,5.23
2024-01-31T19:21:04.695Z,6.50
2024-01-31T19:23:53.697Z,5.60
2024-01-31T19:26:41.923Z,5.30
2024-01-31T19:29:32.153Z,5.37
2024-01-31T19:32:19.885Z,5.60
2024-01-31T19:35:07.755Z,5.40
2024-01-31T19:37:54.994Z,5.33
2024-01-31T19:40:42.337Z,5.90
2024-01-31T19:43:29.820Z,5.87
2024-01-31T19:46:21.484Z,6.07
2024-01-31T19:49:09.001Z,6.90
2024-01-31T19:51:56.645Z,5.73
2024-01-31T19:54:44.047Z,6.60
2024-01-31T19:57:31.298Z,7.20
2024-01-31T20:00:19.243Z,6.80
2024-01-31T20:03:07.830Z,7.00
2024-01-31T20:05:55.488Z,7.23
2024-01-31T20:08:42.891Z,9.07
2024-01-31T20:11:30.658Z,6.77
2024-01-31T20:14:17.968Z,6.13
2024-01-31T20:17:05.724Z,5.90
2024-01-31T20:19:54.536Z,5.87
2024-01-31T20:22:43.068Z,6.33
2024-01-31T20:25:30.643Z,5.07
2024-01-31T20:28:18.567Z,6.10
2024-01-31T20:31:06.563Z,5.40
2024-01-31T20:33:55.645Z,5.93
2024-01-31T20:36:44.643Z,5.13
2024-01-31T20:39:32.221Z,5.83
2024-01-31T20:42:19.512Z,5.80
2024-01-31T20:45:08.292Z,5.97
2024-01-31T20:47:55.895Z,6.47
2024-01-31T20:50:43.517Z,6.37
2024-01-31T20:53:32.022Z,5.93
2024-01-31T20:56:22.927Z,6.23
2024-01-31T20:59:12.111Z,7.40
2024-01-31T21:01:59.690Z,6.70
2024-01-31T21:04:47.004Z,5.60
2024-01-31T21:07:40.338Z,5.70
2024-01-31T21:10:29.069Z,5.83
2024-01-31T21:13:18.156Z,6.27
2024-01-31T21:16:07.445Z,5.70
2024-01-31T21:18:55.203Z,5.27
2024-01-31T21:21:42.558Z,5.80
2024-01-31T21:24:32.146Z,5.67
2024-01-31T21:27:22.220Z,6.10
2024-01-31T21:30:11.234Z,6.03
2024-01-31T21:32:59.156Z,5.23
2024-01-31T21:35:46.353Z,5.70
2024-01-31T21:38:34.191Z,5.20
2024-01-31T21:41:27.193Z,5.33
2024-01-31T21:44:17.781Z,5.50
2024-01-31T21:47:05.637Z,5.00
2024-01-31T21:49:53.524Z,4.93
2024-01-31T21:52:43.261Z,5.03
2024-01-31T21:55:31.313Z,5.33
2024-01-31T21:58:18.584Z,5.20
2024-01-31T22:01:07.740Z,4.80
2024-01-31T22:04:00.513Z,5.53
2024-01-31T22:06:49.864Z,5.33
2024-01-31T22:09:37.671Z,4.93
2024-01-31T22:12:24.994Z,5.17
2024-01-31T22:15:13.004Z,5.20
2024-01-31T22:18:02.062Z,5.40
2024-01-31T22:20:49.442Z,5.73
2024-01-31T22:23:37.253Z,5.70
2024-01-31T22:26:25.678Z,5.40
2024-01-31T22:29:13.004Z,5.20
2024-01-31T22:32:05.492Z,5.80
2024-01-31T22:34:54.272Z,5.43
2024-01-31T22:37:42.045Z,4.90
2024-01-31T22:40:29.303Z,5.60
2024-01-31T22:43:17.084Z,6.53
2024-01-31T22:46:04.670Z,6.30
2024-01-31T22:48:53.522Z,4.27
2024-01-31T22:51:42.303Z,5.87
2024-01-31T22:54:30.334Z,4.47
2024-01-31T22:57:17.890Z,4.90
2024-01-31T23:00:08.796Z,4.97
2024-01-31T23:02:56.547Z,5.03
2024-01-31T23:05:43.929Z,5.20
2024-01-31T23:08:32.991Z,4.67
2024-01-31T23:11:20.496Z,5.17
2024-01-31T23:14:08.272Z,4.13
2024-01-31T23:16:55.520Z,4.73
2024-01-31T23:19:43.386Z,5.20
2024-01-31T23:22:30.907Z,4.57
2024-01-31T23:25:19.700Z,5.33
2024-01-31T23:28:07.569Z,4.60
2024-01-31T23:30:55.179Z,5.37
2024-01-31T23:33:42.810Z,4.73
2024-01-31T23:36:30.648Z,4.80
2024-01-31T23:39:18.318Z,5.03
2024-01-31T23:42:07.389Z,4.17
2024-01-31T23:44:55.405Z,4.63
2024-01-31T23:47:42.845Z,4.63
2024-01-31T23:50:30.681Z,5.60
2024-01-31T23:53:18.350Z,4.60
2024-01-31T23:56:06.897Z,4.53
2024-01-31T23:58:55.909Z,4.67
